createdAt,value
2019-03-25T00:00:20.817Z,73.27
2019-03-25T00:00:46.981Z,73.27
2019-03-25T00:01:13.336Z,73.27
2019-03-25T00:01:39.510Z,73.08
2019-03-25T00:02:05.655Z,72.79
2019-03-25T00:02:31.840Z,72.79
2019-03-25T00:02:58.038Z,72.7
2019-03-25T00:03:24.177Z,73.23
2019-03-25T00:03:50.325Z,73.52
2019-03-25T00:04:16.476Z,73.23
2019-03-25T00:04:42.658Z,73.18
2019-03-25T00:05:08.779Z,73.27
2019-03-25T00:05:34.968Z,73.36
2019-03-25T00:06:01.119Z,72.89
2019-03-25T00:06:27.339Z,72.51
2019-03-25T00:06:53.446Z,72.41
2019-03-25T00:07:19.564Z,72.32
2019-03-25T00:07:45.668Z,72.32
2019-03-25T00:08:11.784Z,72.41
2019-03-25T00:08:37.916Z,72.22
2019-03-25T00:09:06.182Z,72.03
2019-03-25T00:09:32.381Z,72.41
2019-03-25T00:09:58.530Z,72.03
2019-03-25T00:10:24.701Z,72.7
2019-03-25T00:10:50.861Z,72.41
2019-03-25T00:11:17.036Z,72.6
2019-03-25T00:11:43.179Z,72.51
2019-03-25T00:12:09.349Z,71.94
2019-03-25T00:12:35.466Z,71.94
2019-03-25T00:13:01.591Z,72.13
2019-03-25T00:13:27.699Z,72.41
2019-03-25T00:13:53.806Z,72.03
2019-03-25T00:14:19.915Z,72.03
2019-03-25T00:14:46.028Z,72.56
2019-03-25T00:15:12.242Z,72.41
2019-03-25T00:15:38.349Z,72.7
2019-03-25T00:16:05.500Z,72.22
2019-03-25T00:16:31.639Z,72.79
2019-03-25T00:16:57.802Z,72.13
2019-03-25T00:17:23.947Z,71.75
2019-03-25T00:17:50.055Z,71.94
2019-03-25T00:18:16.231Z,71.94
2019-03-25T00:18:42.386Z,71.75
2019-03-25T00:19:08.578Z,71.66
2019-03-25T00:19:34.699Z,72
2019-03-25T00:20:00.819Z,71.84
2019-03-25T00:20:26.923Z,72.03
2019-03-25T00:20:53.022Z,72.03
2019-03-25T00:21:19.134Z,71.84
2019-03-25T00:21:45.238Z,71.94
2019-03-25T00:22:11.353Z,71.56
2019-03-25T00:22:37.459Z,71.46
2019-03-25T00:23:03.565Z,71.66
2019-03-25T00:23:29.678Z,70.99
2019-03-25T00:23:55.783Z,70.7
2019-03-25T00:24:21.897Z,71.08
2019-03-25T00:24:49.037Z,71.08
2019-03-25T00:25:15.143Z,71.18
2019-03-25T00:25:41.306Z,71.08
2019-03-25T00:26:07.437Z,71.18
2019-03-25T00:26:33.539Z,71.08
2019-03-25T00:26:59.645Z,70.7
2019-03-25T00:27:25.752Z,70.61
2019-03-25T00:27:51.894Z,70.51
2019-03-25T00:28:18.988Z,70.7
2019-03-25T00:28:45.095Z,70.32
2019-03-25T00:29:11.199Z,70.7
2019-03-25T00:29:37.311Z,70.61
2019-03-25T00:30:03.416Z,70.42
2019-03-25T00:30:29.559Z,70.61
2019-03-25T00:30:55.664Z,70.7
2019-03-25T00:31:21.777Z,70.61
2019-03-25T00:31:47.900Z,71.08
2019-03-25T00:32:13.987Z,70.7
2019-03-25T00:32:40.128Z,70.61
2019-03-25T00:33:06.266Z,70.61
2019-03-25T00:33:32.369Z,71.18
2019-03-25T00:33:58.476Z,71.18
2019-03-25T00:34:24.579Z,71.18
2019-03-25T00:34:50.694Z,71.08
2019-03-25T00:35:16.791Z,71.56
2019-03-25T00:35:42.902Z,71.66
2019-03-25T00:36:09.034Z,71.37
2019-03-25T00:36:35.137Z,71.84
2019-03-25T00:37:01.249Z,71.94
2019-03-25T00:37:27.350Z,71.84
2019-03-25T00:37:53.465Z,71.43
2019-03-25T00:38:19.615Z,72.03
2019-03-25T00:38:45.727Z,72.13
2019-03-25T00:39:11.839Z,72
2019-03-25T00:39:37.978Z,72
2019-03-25T00:40:04.088Z,72
2019-03-25T00:40:30.196Z,71.75
2019-03-25T00:40:56.302Z,71.94
2019-03-25T00:41:22.399Z,71.75
2019-03-25T00:41:48.508Z,72.13
2019-03-25T00:42:14.645Z,71.84
2019-03-25T00:42:40.754Z,71.66
2019-03-25T00:43:06.853Z,71.37
2019-03-25T00:43:32.968Z,71.56
2019-03-25T00:43:59.071Z,70.99
2019-03-25T00:44:25.181Z,71.18
2019-03-25T00:44:51.287Z,71.18
2019-03-25T00:45:17.399Z,71.66
2019-03-25T00:45:43.530Z,71.46
2019-03-25T00:46:09.642Z,71.66
2019-03-25T00:46:35.749Z,71.66
2019-03-25T00:47:01.856Z,71.56
2019-03-25T00:47:27.965Z,71.66
2019-03-25T00:47:54.068Z,71.27
2019-03-25T00:48:20.218Z,71.08
2019-03-25T00:48:46.327Z,71.08
2019-03-25T00:49:12.428Z,71.23
2019-03-25T00:49:38.558Z,71.43
2019-03-25T00:50:04.670Z,71.66
2019-03-25T00:50:30.810Z,71.66
2019-03-25T00:50:56.919Z,71.75
2019-03-25T00:51:23.051Z,71.37
2019-03-25T00:51:49.160Z,71.46
2019-03-25T00:52:15.292Z,71.75
2019-03-25T00:52:41.405Z,71.08
2019-03-25T00:53:07.550Z,70.99
2019-03-25T00:53:33.652Z,70.7
2019-03-25T00:53:59.794Z,70.89
2019-03-25T00:54:25.900Z,71.43
2019-03-25T00:54:53.989Z,71.37
2019-03-25T00:55:20.094Z,71.75
2019-03-25T00:55:46.231Z,71.75
2019-03-25T00:56:12.371Z,71.56
2019-03-25T00:56:38.472Z,71.56
2019-03-25T00:57:04.580Z,71.18
2019-03-25T00:57:30.690Z,71.27
2019-03-25T00:57:56.800Z,71.27
2019-03-25T00:58:22.897Z,71.56
2019-03-25T00:58:49.036Z,71.84
2019-03-25T00:59:15.153Z,71.37
2019-03-25T00:59:41.262Z,71.46
2019-03-25T01:00:08.357Z,71.62
2019-03-25T01:00:34.483Z,71.56
2019-03-25T01:01:00.618Z,71.46
2019-03-25T01:01:26.729Z,71.56
2019-03-25T01:01:52.839Z,71.56
2019-03-25T01:02:18.938Z,71.56
2019-03-25T01:02:45.100Z,71.66
2019-03-25T01:03:11.216Z,71.56
2019-03-25T01:03:37.319Z,71.08
2019-03-25T01:04:03.425Z,70.99
2019-03-25T01:04:29.539Z,70.89
2019-03-25T01:04:55.644Z,71.08
2019-03-25T01:05:21.759Z,71.08
2019-03-25T01:05:47.858Z,70.99
2019-03-25T01:06:13.962Z,70.89
2019-03-25T01:06:40.067Z,71.08
2019-03-25T01:07:06.175Z,71.08
2019-03-25T01:07:32.283Z,71.37
2019-03-25T01:07:58.397Z,70.7
2019-03-25T01:08:24.527Z,71.37
2019-03-25T01:08:50.629Z,71.18
2019-03-25T01:09:16.768Z,71.37
2019-03-25T01:09:42.908Z,70.7
2019-03-25T01:10:09.040Z,70.99
2019-03-25T01:10:35.151Z,71.18
2019-03-25T01:11:01.258Z,70.61
2019-03-25T01:11:27.359Z,70.89
2019-03-25T01:11:54.765Z,70.7
2019-03-25T01:12:20.879Z,70.7
2019-03-25T01:12:47.010Z,71.27
2019-03-25T01:13:13.109Z,71.18
2019-03-25T01:13:39.252Z,70.89
2019-03-25T01:14:05.360Z,71.08
2019-03-25T01:14:31.471Z,71.08
2019-03-25T01:14:57.586Z,71.08
2019-03-25T01:15:23.693Z,71.66
2019-03-25T01:15:49.796Z,70.89
2019-03-25T01:16:15.916Z,70.7
2019-03-25T01:16:42.010Z,70.89
2019-03-25T01:17:08.150Z,71.27
2019-03-25T01:17:34.261Z,71.14
2019-03-25T01:18:00.363Z,70.99
2019-03-25T01:18:28.446Z,70.99
2019-03-25T01:18:54.557Z,71.18
2019-03-25T01:19:20.662Z,71.08
2019-03-25T01:19:46.777Z,71.08
2019-03-25T01:20:12.950Z,70.7
2019-03-25T01:20:39.238Z,70.7
2019-03-25T01:21:05.353Z,70.61
2019-03-25T01:21:31.462Z,70.7
2019-03-25T01:21:57.566Z,70.51
2019-03-25T01:22:23.676Z,70.51
2019-03-25T01:22:49.785Z,70.42
2019-03-25T01:23:15.893Z,70.23
2019-03-25T01:23:42.001Z,70.42
2019-03-25T01:24:08.119Z,70.51
2019-03-25T01:24:34.232Z,70.42
2019-03-25T01:25:02.472Z,70.7
2019-03-25T01:25:28.482Z,70.99
2019-03-25T01:25:54.610Z,70.7
2019-03-25T01:26:20.721Z,70.7
2019-03-25T01:26:46.827Z,70.61
2019-03-25T01:27:12.932Z,70.89
2019-03-25T01:27:39.032Z,70.51
2019-03-25T01:28:05.174Z,70.42
2019-03-25T01:28:31.279Z,70.23
2019-03-25T01:28:57.414Z,70.79
2019-03-25T01:29:23.570Z,70.61
2019-03-25T01:29:49.655Z,70.89
2019-03-25T01:30:15.859Z,70.61
2019-03-25T01:30:41.993Z,70.61
2019-03-25T01:31:08.107Z,70.61
2019-03-25T01:31:34.210Z,70.7
2019-03-25T01:32:00.319Z,70.7
2019-03-25T01:32:26.421Z,70.7
2019-03-25T01:32:52.593Z,70.61
2019-03-25T01:33:18.670Z,70.7
2019-03-25T01:33:44.781Z,70.79
2019-03-25T01:34:10.914Z,70.89
2019-03-25T01:34:37.049Z,71.08
2019-03-25T01:35:03.156Z,71.08
2019-03-25T01:35:29.318Z,71.23
2019-03-25T01:35:55.420Z,70.99
2019-03-25T01:36:21.530Z,71.04
2019-03-25T01:36:47.633Z,71.04
2019-03-25T01:37:13.740Z,71.23
2019-03-25T01:37:39.846Z,71.66
2019-03-25T01:38:05.978Z,71.66
2019-03-25T01:38:32.088Z,71.23
2019-03-25T01:38:58.191Z,71.18
2019-03-25T01:39:24.349Z,71.62
2019-03-25T01:39:50.452Z,71.18
2019-03-25T01:40:16.591Z,70.99
2019-03-25T01:40:42.693Z,70.86
2019-03-25T01:41:08.825Z,71.18
2019-03-25T01:41:34.971Z,70.86
2019-03-25T01:42:01.073Z,71.08
2019-03-25T01:42:27.282Z,71.18
2019-03-25T01:42:53.435Z,70.89
2019-03-25T01:43:19.546Z,70.99
2019-03-25T01:43:45.654Z,70.89
2019-03-25T01:44:11.759Z,70.99
2019-03-25T01:44:37.889Z,70.89
2019-03-25T01:45:04.002Z,71.04
2019-03-25T01:45:30.113Z,71.23
2019-03-25T01:45:56.221Z,71.27
2019-03-25T01:46:22.334Z,71.43
2019-03-25T01:46:48.439Z,71.75
2019-03-25T01:47:14.552Z,71.43
2019-03-25T01:47:40.691Z,71.37
2019-03-25T01:48:06.792Z,71.43
2019-03-25T01:48:32.899Z,71.84
2019-03-25T01:48:59.023Z,71.56
2019-03-25T01:49:25.132Z,71.66
2019-03-25T01:49:51.305Z,71.71
2019-03-25T01:50:17.417Z,72.09
2019-03-25T01:50:43.518Z,71.71
2019-03-25T01:51:09.627Z,72
2019-03-25T01:51:35.741Z,72.09
2019-03-25T01:52:01.877Z,72.22
2019-03-25T01:52:27.979Z,72.47
2019-03-25T01:52:54.115Z,72.47
2019-03-25T01:53:20.248Z,72.66
2019-03-25T01:53:46.386Z,72.19
2019-03-25T01:54:12.489Z,72.66
2019-03-25T01:54:38.600Z,72.75
2019-03-25T01:55:12.911Z,73.23
2019-03-25T01:55:32.823Z,73.14
2019-03-25T01:55:58.935Z,73.33
2019-03-25T01:56:25.044Z,72.95
2019-03-25T01:56:51.178Z,73.42
2019-03-25T01:57:17.286Z,73.23
2019-03-25T01:57:43.395Z,73.23
2019-03-25T01:58:09.499Z,73.18
2019-03-25T01:58:35.630Z,73.23
2019-03-25T01:59:01.738Z,73.27
2019-03-25T01:59:27.847Z,73.27
2019-03-25T01:59:53.949Z,73.27
2019-03-25T02:00:20.050Z,72.51
2019-03-25T02:00:46.155Z,72.79
2019-03-25T02:01:12.260Z,72.89
2019-03-25T02:01:38.371Z,73.08
2019-03-25T02:02:04.472Z,73.23
2019-03-25T02:02:30.585Z,73.71
2019-03-25T02:02:56.686Z,73.55
2019-03-25T02:03:22.798Z,73.9
2019-03-25T02:03:48.932Z,73.52
2019-03-25T02:04:15.045Z,73.9
2019-03-25T02:04:41.149Z,74.37
2019-03-25T02:05:07.279Z,74.08
2019-03-25T02:05:33.383Z,74.41
2019-03-25T02:05:59.526Z,74.08
2019-03-25T02:06:25.643Z,74.47
2019-03-25T02:06:51.747Z,74.27
2019-03-25T02:07:17.868Z,74.47
2019-03-25T02:07:43.993Z,74.75
2019-03-25T02:08:10.108Z,74.56
2019-03-25T02:08:36.212Z,74.94
2019-03-25T02:09:02.319Z,75.13
2019-03-25T02:09:28.477Z,75.04
2019-03-25T02:09:54.592Z,74.94
2019-03-25T02:10:20.691Z,75.23
2019-03-25T02:10:46.803Z,75.13
2019-03-25T02:11:12.909Z,74.85
2019-03-25T02:11:39.015Z,75.07
2019-03-25T02:12:05.123Z,75.13
2019-03-25T02:12:31.230Z,74.66
2019-03-25T02:12:57.368Z,75.04
2019-03-25T02:13:23.476Z,74.56
2019-03-25T02:13:49.585Z,75.32
2019-03-25T02:14:15.722Z,75.51
2019-03-25T02:14:41.838Z,75.7
2019-03-25T02:15:07.966Z,75.51
2019-03-25T02:15:34.072Z,75.51
2019-03-25T02:16:00.175Z,76.08
2019-03-25T02:16:26.278Z,75.79
2019-03-25T02:16:52.383Z,75.84
2019-03-25T02:17:18.497Z,75.99
2019-03-25T02:17:44.599Z,75.99
2019-03-25T02:18:10.705Z,75.99
2019-03-25T02:18:36.845Z,76.08
2019-03-25T02:19:02.948Z,76.08
2019-03-25T02:19:29.085Z,75.93
2019-03-25T02:19:55.198Z,76.08
2019-03-25T02:20:26.538Z,75.99
2019-03-25T02:20:49.475Z,75.7
2019-03-25T02:21:15.606Z,76.21
2019-03-25T02:21:41.726Z,76.03
2019-03-25T02:22:07.887Z,76.84
2019-03-25T02:22:34.125Z,76.75
2019-03-25T02:23:00.672Z,77.03
2019-03-25T02:23:26.989Z,76.93
2019-03-25T02:23:53.096Z,76.93
2019-03-25T02:24:19.201Z,77.22
2019-03-25T02:24:45.366Z,77.31
2019-03-25T02:25:11.494Z,77.31
2019-03-25T02:25:39.587Z,77.31
2019-03-25T02:26:05.720Z,77.79
2019-03-25T02:26:31.820Z,77.98
2019-03-25T02:26:57.932Z,78.45
2019-03-25T02:27:24.044Z,78.36
2019-03-25T02:27:50.172Z,78.74
2019-03-25T02:28:16.313Z,79.12
2019-03-25T02:28:42.483Z,78.93
2019-03-25T02:29:08.584Z,79.03
2019-03-25T02:29:34.693Z,79.22
2019-03-25T02:30:00.845Z,79.12
2019-03-25T02:30:27.002Z,79.12
2019-03-25T02:30:53.148Z,79.03
2019-03-25T02:31:19.313Z,79.22
2019-03-25T02:31:45.457Z,79.03
2019-03-25T02:32:11.590Z,79.03
2019-03-25T02:32:37.753Z,79.12
2019-03-25T02:33:03.860Z,79.12
2019-03-25T02:33:30.001Z,79.41
2019-03-25T02:33:56.107Z,79.69
2019-03-25T02:34:22.271Z,79.03
2019-03-25T02:34:48.388Z,79.22
2019-03-25T02:35:14.486Z,79.5
2019-03-25T02:35:40.604Z,79.6
2019-03-25T02:36:06.801Z,79.41
2019-03-25T02:36:32.934Z,79.12
2019-03-25T02:36:59.072Z,79.03
2019-03-25T02:37:25.228Z,79.22
2019-03-25T02:37:51.341Z,79.22
2019-03-25T02:38:17.478Z,79.22
2019-03-25T02:38:43.609Z,79.5
2019-03-25T02:39:09.716Z,79.5
2019-03-25T02:39:35.848Z,79.31
2019-03-25T02:40:02.010Z,79.41
2019-03-25T02:40:28.113Z,79.31
2019-03-25T02:40:54.275Z,79.41
2019-03-25T02:41:20.384Z,79.69
2019-03-25T02:41:46.520Z,79.73
2019-03-25T02:42:12.635Z,79.31
2019-03-25T02:42:38.733Z,79.97
2019-03-25T02:43:04.835Z,79.83
2019-03-25T02:43:31.004Z,79.54
2019-03-25T02:43:57.109Z,79.79
2019-03-25T02:44:23.240Z,79.69
2019-03-25T02:44:49.377Z,79.97
2019-03-25T02:45:15.516Z,79.79
2019-03-25T02:45:41.707Z,80.3
2019-03-25T02:46:07.837Z,79.6
2019-03-25T02:46:33.996Z,79.92
2019-03-25T02:47:00.137Z,79.83
2019-03-25T02:47:26.274Z,79.69
2019-03-25T02:47:52.380Z,80.02
2019-03-25T02:48:18.516Z,79.92
2019-03-25T02:48:44.629Z,79.83
2019-03-25T02:49:10.829Z,79.92
2019-03-25T02:49:36.968Z,79.73
2019-03-25T02:50:03.099Z,79.79
2019-03-25T02:50:29.235Z,79.79
2019-03-25T02:50:55.368Z,80.49
2019-03-25T02:51:21.509Z,80.49
2019-03-25T02:51:47.639Z,80.49
2019-03-25T02:52:13.778Z,80.3
2019-03-25T02:52:39.906Z,80.21
2019-03-25T02:53:06.019Z,79.73
2019-03-25T02:53:32.190Z,79.92
2019-03-25T02:53:58.327Z,79.83
2019-03-25T02:54:24.461Z,79.73
2019-03-25T02:54:50.594Z,80.11
2019-03-25T02:55:16.770Z,80.21
2019-03-25T02:55:44.915Z,80.58
2019-03-25T02:56:11.025Z,80.68
2019-03-25T02:56:37.193Z,80.4
2019-03-25T02:57:03.333Z,80.3
2019-03-25T02:57:29.465Z,80.49
2019-03-25T02:57:55.605Z,81.82
2019-03-25T02:58:21.772Z,81.82
2019-03-25T02:58:47.970Z,83.15
2019-03-25T02:59:14.136Z,83.82
2019-03-25T02:59:40.306Z,84.1
2019-03-25T03:00:06.413Z,85.05
2019-03-25T03:00:32.601Z,85.72
2019-03-25T03:00:58.737Z,86.47
2019-03-25T03:01:24.869Z,85.72
2019-03-25T03:01:51.028Z,85.53
2019-03-25T03:02:17.193Z,85.53
2019-03-25T03:02:43.361Z,85.62
2019-03-25T03:03:09.467Z,86
2019-03-25T03:03:35.608Z,85.53
2019-03-25T03:04:01.771Z,85.72
2019-03-25T03:04:27.874Z,85.81
2019-03-25T03:04:54.055Z,85.43
2019-03-25T03:05:20.237Z,85.34
2019-03-25T03:05:46.397Z,85.62
2019-03-25T03:06:12.500Z,85.53
2019-03-25T03:06:38.638Z,85.91
2019-03-25T03:07:04.746Z,86.38
2019-03-25T03:07:30.880Z,85.91
2019-03-25T03:07:56.988Z,86.67
2019-03-25T03:08:23.166Z,86.86
2019-03-25T03:08:50.262Z,86.76
2019-03-25T03:09:16.397Z,87.34
2019-03-25T03:09:42.536Z,87.24
2019-03-25T03:10:08.640Z,87.24
2019-03-25T03:10:34.808Z,87.71
2019-03-25T03:11:00.986Z,88.38
2019-03-25T03:11:27.206Z,88.47
2019-03-25T03:11:53.397Z,88.95
2019-03-25T03:12:19.561Z,90.56
2019-03-25T03:12:45.657Z,90.85
2019-03-25T03:13:11.765Z,91.33
2019-03-25T03:13:37.924Z,91.61
2019-03-25T03:14:04.037Z,91.89
2019-03-25T03:14:31.183Z,92.18
2019-03-25T03:14:57.407Z,92.27
2019-03-25T03:15:23.503Z,92.94
2019-03-25T03:15:49.615Z,91.99
2019-03-25T03:16:15.778Z,92.08
2019-03-25T03:16:41.887Z,92.66
2019-03-25T03:17:08.052Z,92.66
2019-03-25T03:17:34.159Z,92.85
2019-03-25T03:18:00.301Z,92.94
2019-03-25T03:18:26.403Z,92.75
2019-03-25T03:18:52.537Z,93.13
2019-03-25T03:19:18.675Z,92.85
2019-03-25T03:19:44.803Z,92.46
2019-03-25T03:20:11.165Z,92.94
2019-03-25T03:20:37.359Z,92.94
2019-03-25T03:21:03.476Z,92.75
2019-03-25T03:21:29.597Z,92.66
2019-03-25T03:21:55.709Z,92.23
2019-03-25T03:22:21.813Z,92.9
2019-03-25T03:22:47.946Z,92.71
2019-03-25T03:23:14.080Z,92.56
2019-03-25T03:23:40.224Z,92.75
2019-03-25T03:24:06.392Z,92.71
2019-03-25T03:24:32.525Z,92.8
2019-03-25T03:24:58.629Z,92.9
2019-03-25T03:25:24.726Z,92.37
2019-03-25T03:25:57.497Z,92.61
2019-03-25T03:26:19.969Z,92.8
2019-03-25T03:26:46.067Z,92.9
2019-03-25T03:27:12.209Z,92.8
2019-03-25T03:27:39.298Z,92.9
2019-03-25T03:28:05.407Z,92.61
2019-03-25T03:28:31.571Z,92.51
2019-03-25T03:28:57.677Z,92.61
2019-03-25T03:29:23.807Z,92.71
2019-03-25T03:29:49.945Z,92.61
2019-03-25T03:30:16.577Z,92.61
2019-03-25T03:30:42.757Z,92.51
2019-03-25T03:31:08.915Z,92.32
2019-03-25T03:31:35.108Z,93.27
2019-03-25T03:32:01.279Z,92.61
2019-03-25T03:32:27.658Z,92.51
2019-03-25T03:32:53.795Z,92.51
2019-03-25T03:33:19.925Z,92.51
2019-03-25T03:33:46.097Z,92.71
2019-03-25T03:34:12.297Z,93.27
2019-03-25T03:34:38.438Z,93.08
2019-03-25T03:35:04.787Z,93.18
2019-03-25T03:35:30.922Z,92.75
2019-03-25T03:35:57.241Z,92.42
2019-03-25T03:36:23.404Z,92.66
2019-03-25T03:36:49.541Z,92.46
2019-03-25T03:37:15.645Z,92.71
2019-03-25T03:37:41.782Z,92.46
2019-03-25T03:38:07.892Z,92.94
2019-03-25T03:38:34.054Z,92.75
2019-03-25T03:39:00.190Z,92.66
2019-03-25T03:39:26.356Z,92.75
2019-03-25T03:39:52.563Z,93.13
2019-03-25T03:40:18.729Z,92.27
2019-03-25T03:40:44.888Z,92.37
2019-03-25T03:41:11.024Z,92.56
2019-03-25T03:41:37.182Z,92.46
2019-03-25T03:42:03.401Z,92.46
2019-03-25T03:42:29.495Z,92.08
2019-03-25T03:42:55.629Z,92.27
2019-03-25T03:43:21.764Z,92.18
2019-03-25T03:43:47.938Z,92.27
2019-03-25T03:44:15.060Z,92.27
2019-03-25T03:44:41.170Z,92.27
2019-03-25T03:45:07.339Z,92.18
2019-03-25T03:45:33.554Z,92.08
2019-03-25T03:45:59.677Z,91.52
2019-03-25T03:46:25.811Z,91.8
2019-03-25T03:46:51.919Z,91.13
2019-03-25T03:47:18.146Z,91.52
2019-03-25T03:47:44.277Z,91.42
2019-03-25T03:48:10.418Z,91.42
2019-03-25T03:48:36.554Z,91.23
2019-03-25T03:49:02.694Z,91.52
2019-03-25T03:49:28.892Z,91.38
2019-03-25T03:49:55.070Z,91.52
2019-03-25T03:50:22.319Z,91.42
2019-03-25T03:50:48.430Z,91.33
2019-03-25T03:51:14.560Z,90.99
2019-03-25T03:51:40.726Z,90.85
2019-03-25T03:52:06.833Z,91.09
2019-03-25T03:52:32.994Z,91.04
2019-03-25T03:52:59.143Z,90.94
2019-03-25T03:53:25.345Z,90.94
2019-03-25T03:53:51.484Z,90.85
2019-03-25T03:54:17.638Z,90.75
2019-03-25T03:54:43.769Z,91.04
2019-03-25T03:55:09.894Z,90.75
2019-03-25T03:55:36.075Z,90.47
2019-03-25T03:56:12.449Z,90.75
2019-03-25T03:56:31.318Z,90.75
2019-03-25T03:56:57.447Z,90.47
2019-03-25T03:57:23.642Z,90.66
2019-03-25T03:57:49.759Z,90.85
2019-03-25T03:58:15.925Z,90.28
2019-03-25T03:58:42.024Z,90.37
2019-03-25T03:59:08.133Z,90.75
2019-03-25T03:59:34.240Z,89.33
2019-03-25T04:00:00.524Z,89.04
2019-03-25T04:00:26.483Z,89.19
2019-03-25T04:00:52.617Z,89.04
2019-03-25T04:01:18.755Z,89.09
2019-03-25T04:01:44.923Z,89.19
2019-03-25T04:02:11.142Z,89.14
2019-03-25T04:02:37.253Z,89.19
2019-03-25T04:03:03.446Z,88.81
2019-03-25T04:03:29.612Z,88.71
2019-03-25T04:03:55.785Z,89.19
2019-03-25T04:04:21.916Z,88.9
2019-03-25T04:04:48.029Z,89.19
2019-03-25T04:05:14.153Z,89.19
2019-03-25T04:05:40.322Z,88.9
2019-03-25T04:06:06.512Z,88.9
2019-03-25T04:06:32.676Z,88.71
2019-03-25T04:06:58.820Z,88.9
2019-03-25T04:07:24.999Z,88.71
2019-03-25T04:07:51.145Z,89
2019-03-25T04:08:17.280Z,89.38
2019-03-25T04:08:43.443Z,89
2019-03-25T04:09:09.572Z,88.71
2019-03-25T04:09:35.703Z,88.81
2019-03-25T04:10:01.845Z,88.71
2019-03-25T04:10:27.945Z,88.43
2019-03-25T04:10:54.107Z,87.86
2019-03-25T04:11:20.250Z,88.15
2019-03-25T04:11:46.379Z,88.34
2019-03-25T04:12:12.526Z,88.43
2019-03-25T04:12:38.685Z,88.34
2019-03-25T04:13:04.852Z,88.43
2019-03-25T04:13:30.990Z,88.43
2019-03-25T04:13:57.095Z,88.71
2019-03-25T04:14:23.205Z,88.71
2019-03-25T04:14:49.372Z,88.71
2019-03-25T04:15:15.501Z,88.81
2019-03-25T04:15:41.696Z,89.09
2019-03-25T04:16:08.796Z,89.28
2019-03-25T04:16:34.930Z,89.28
2019-03-25T04:17:01.037Z,89
2019-03-25T04:17:27.198Z,88.71
2019-03-25T04:17:53.302Z,88.43
2019-03-25T04:18:19.468Z,87.95
2019-03-25T04:18:45.579Z,88.34
2019-03-25T04:19:11.720Z,88.15
2019-03-25T04:19:37.823Z,88.15
2019-03-25T04:20:03.980Z,88.05
2019-03-25T04:20:30.075Z,88.34
2019-03-25T04:20:56.212Z,88.53
2019-03-25T04:21:22.370Z,88.86
2019-03-25T04:21:48.510Z,88.9
2019-03-25T04:22:14.668Z,88.81
2019-03-25T04:22:40.846Z,89.38
2019-03-25T04:23:07.014Z,89.53
2019-03-25T04:23:33.123Z,89.38
2019-03-25T04:24:00.311Z,89.57
2019-03-25T04:24:26.460Z,89.28
2019-03-25T04:24:52.567Z,89.19
2019-03-25T04:25:18.687Z,89.19
2019-03-25T04:25:44.807Z,89.47
2019-03-25T04:26:10.945Z,89.09
2019-03-25T04:26:40.020Z,89.09
2019-03-25T04:27:06.128Z,89
2019-03-25T04:27:32.300Z,89.09
2019-03-25T04:27:58.426Z,89.19
2019-03-25T04:28:24.531Z,89.09
2019-03-25T04:28:50.667Z,89.19
2019-03-25T04:29:16.955Z,89.19
2019-03-25T04:29:43.071Z,89.47
2019-03-25T04:30:09.213Z,89.09
2019-03-25T04:30:35.376Z,89.09
2019-03-25T04:31:01.629Z,88.71
2019-03-25T04:31:27.772Z,88.9
2019-03-25T04:31:53.874Z,88.53
2019-03-25T04:32:20.005Z,89
2019-03-25T04:32:46.109Z,88.71
2019-03-25T04:33:12.228Z,88.9
2019-03-25T04:33:38.358Z,88.81
2019-03-25T04:34:04.464Z,88.62
2019-03-25T04:34:30.605Z,88.62
2019-03-25T04:34:56.744Z,88.53
2019-03-25T04:35:22.901Z,88.53
2019-03-25T04:35:49.008Z,88.53
2019-03-25T04:36:15.143Z,88.95
2019-03-25T04:36:41.330Z,88.76
2019-03-25T04:37:07.443Z,88.76
2019-03-25T04:37:33.586Z,88.67
2019-03-25T04:37:59.725Z,89.05
2019-03-25T04:38:25.857Z,89.14
2019-03-25T04:38:51.950Z,88.57
2019-03-25T04:39:18.116Z,88.48
2019-03-25T04:39:44.249Z,88.67
2019-03-25T04:40:10.362Z,88.67
2019-03-25T04:40:36.466Z,88.76
2019-03-25T04:41:02.631Z,89.05
2019-03-25T04:41:28.808Z,88.76
2019-03-25T04:41:55.012Z,88.86
2019-03-25T04:42:21.071Z,88.76
2019-03-25T04:42:47.241Z,89.05
2019-03-25T04:43:13.410Z,88.67
2019-03-25T04:43:39.541Z,89.05
2019-03-25T04:44:05.648Z,89.05
2019-03-25T04:44:31.748Z,89.14
2019-03-25T04:44:57.854Z,89.9
2019-03-25T04:45:23.959Z,89.62
2019-03-25T04:45:50.065Z,89.72
2019-03-25T04:46:16.171Z,89.72
2019-03-25T04:46:42.279Z,89.72
2019-03-25T04:47:08.387Z,90.19
2019-03-25T04:47:34.519Z,90.47
2019-03-25T04:48:00.623Z,90.66
2019-03-25T04:48:26.731Z,90.28
2019-03-25T04:48:52.844Z,90.76
2019-03-25T04:49:18.980Z,90.76
2019-03-25T04:49:45.114Z,90.85
2019-03-25T04:50:11.225Z,90.95
2019-03-25T04:50:37.333Z,90.85
2019-03-25T04:51:03.444Z,91.14
2019-03-25T04:51:29.542Z,91.14
2019-03-25T04:51:55.653Z,91.24
2019-03-25T04:52:21.763Z,91.33
2019-03-25T04:52:47.903Z,91.24
2019-03-25T04:53:14.039Z,91.04
2019-03-25T04:53:40.177Z,91.61
2019-03-25T04:54:06.317Z,91.8
2019-03-25T04:54:32.427Z,91.52
2019-03-25T04:54:58.521Z,91.52
2019-03-25T04:55:24.675Z,91.8
2019-03-25T04:55:50.791Z,91.33
2019-03-25T04:56:16.899Z,91.33
2019-03-25T04:56:44.054Z,91.8
2019-03-25T04:57:10.162Z,91.42
2019-03-25T04:57:36.273Z,91.42
2019-03-25T04:58:02.376Z,91.42
2019-03-25T04:58:28.476Z,91.71
2019-03-25T04:58:54.586Z,91.61
2019-03-25T04:59:21.216Z,91.8
2019-03-25T04:59:47.322Z,91.52
2019-03-25T05:00:13.430Z,91.61
2019-03-25T05:00:39.538Z,91.61
2019-03-25T05:01:05.653Z,91.42
2019-03-25T05:01:31.750Z,91.24
2019-03-25T05:01:57.860Z,91.14
2019-03-25T05:02:23.962Z,91.52
2019-03-25T05:02:50.077Z,91.52
2019-03-25T05:03:16.208Z,91.33
2019-03-25T05:03:42.380Z,91.24
2019-03-25T05:04:08.542Z,91.8
2019-03-25T05:04:34.651Z,91.61
2019-03-25T05:05:00.755Z,91.14
2019-03-25T05:05:26.867Z,91.42
2019-03-25T05:05:52.969Z,91.24
2019-03-25T05:06:19.075Z,91.42
2019-03-25T05:06:45.209Z,91.42
2019-03-25T05:07:11.367Z,91.42
2019-03-25T05:07:37.426Z,91.42
2019-03-25T05:08:03.551Z,91.42
2019-03-25T05:08:29.665Z,91.33
2019-03-25T05:08:55.769Z,91.99
2019-03-25T05:09:21.881Z,91.8
2019-03-25T05:09:47.992Z,92.09
2019-03-25T05:10:14.095Z,92.33
2019-03-25T05:10:40.238Z,92.23
2019-03-25T05:11:07.328Z,92.94
2019-03-25T05:11:35.415Z,92.85
2019-03-25T05:12:01.560Z,92.85
2019-03-25T05:12:27.659Z,93.04
2019-03-25T05:12:53.769Z,92.28
2019-03-25T05:13:19.869Z,92.37
2019-03-25T05:13:45.976Z,92.18
2019-03-25T05:14:12.084Z,92.66
2019-03-25T05:14:38.191Z,92.56
2019-03-25T05:15:04.303Z,92.94
2019-03-25T05:15:30.417Z,92.75
2019-03-25T05:15:56.517Z,92.85
2019-03-25T05:16:23.615Z,92.94
2019-03-25T05:16:49.728Z,92.85
2019-03-25T05:17:15.835Z,92.75
2019-03-25T05:17:41.956Z,93.04
2019-03-25T05:18:08.084Z,92.66
2019-03-25T05:18:34.220Z,92.56
2019-03-25T05:19:00.322Z,92.56
2019-03-25T05:19:26.436Z,92.47
2019-03-25T05:19:52.543Z,92.56
2019-03-25T05:20:18.648Z,92.66
2019-03-25T05:20:44.755Z,92.66
2019-03-25T05:21:10.897Z,92.75
2019-03-25T05:21:37.008Z,92.56
2019-03-25T05:22:03.112Z,92.75
2019-03-25T05:22:30.216Z,92.94
2019-03-25T05:22:56.342Z,92.85
2019-03-25T05:23:22.449Z,92.56
2019-03-25T05:23:48.557Z,92.75
2019-03-25T05:24:14.689Z,92.66
2019-03-25T05:24:40.833Z,92.75
2019-03-25T05:25:06.969Z,93.13
2019-03-25T05:25:33.074Z,93.23
2019-03-25T05:25:59.177Z,93.6
2019-03-25T05:26:25.335Z,93.41
2019-03-25T05:26:53.421Z,92.85
2019-03-25T05:27:19.574Z,92.85
2019-03-25T05:27:45.686Z,93.04
2019-03-25T05:28:11.793Z,93.32
2019-03-25T05:28:37.897Z,93.13
2019-03-25T05:29:04.004Z,93.23
2019-03-25T05:29:30.114Z,93.23
2019-03-25T05:29:56.241Z,93.13
2019-03-25T05:30:23.030Z,92.9
2019-03-25T05:30:48.480Z,92.8
2019-03-25T05:31:14.590Z,93.7
2019-03-25T05:31:40.694Z,93.46
2019-03-25T05:32:06.836Z,93.65
2019-03-25T05:32:32.941Z,93.75
2019-03-25T05:32:59.046Z,93.75
2019-03-25T05:33:25.149Z,94.42
2019-03-25T05:33:51.260Z,94.51
2019-03-25T05:34:17.371Z,94.42
2019-03-25T05:34:43.476Z,94.46
2019-03-25T05:35:09.583Z,94.18
2019-03-25T05:35:35.689Z,94.18
2019-03-25T05:36:02.623Z,93.8
2019-03-25T05:36:28.725Z,93.8
2019-03-25T05:36:54.824Z,93.41
2019-03-25T05:37:20.937Z,93.51
2019-03-25T05:37:47.080Z,93.41
2019-03-25T05:38:13.205Z,92.75
2019-03-25T05:38:39.317Z,93.13